Terminal Aerodrome Forecast
Issued by NWS

Home | Current Version | Previous Version | Text Only | Print | Product List | Glossary On
Versions: 1 2 3 4 5 6 7 8 9 10 11 12 13 14 15 16 17 18 19 20
000
FTPA31 PHFO 161737
TAFHNY
TAF
PHNY 161737Z 1618/1718 05010KT P6SM FEW025
     FM161900 25007KT P6SM BKN025
     FM170100 04015G20KT P6SM SCT030
     FM170500 04010KT P6SM FEW025=

USA.gov is the U.S. government's official web portal to all federal, state and local government web resources and services.